createdAt,value
2023-06-02T00:00:16.439Z,1015.90
2023-06-02T00:02:28.515Z,1015.89
2023-06-02T00:04:41.551Z,1015.85
2023-06-02T00:06:53.628Z,1015.92
2023-06-02T00:09:06.830Z,1015.94
2023-06-02T00:11:18.143Z,1015.97
2023-06-02T00:13:30.190Z,1015.98
2023-06-02T00:15:42.354Z,1016.03
2023-06-02T00:17:54.439Z,1016.06
2023-06-02T00:20:06.480Z,1016.02
2023-06-02T00:22:18.549Z,1016.01
2023-06-02T00:24:30.616Z,1016.12
2023-06-02T00:26:42.694Z,1016.09
2023-06-02T00:28:54.779Z,1016.05
2023-06-02T00:31:06.872Z,1016.00
2023-06-02T00:33:18.986Z,1015.98
2023-06-02T00:35:31.073Z,1015.98
2023-06-02T00:37:43.150Z,1015.92
2023-06-02T00:39:55.230Z,1015.91
2023-06-02T00:42:07.312Z,1015.89
2023-06-02T00:44:19.405Z,1015.91
2023-06-02T00:46:31.482Z,1015.82
2023-06-02T00:48:43.546Z,1015.84
2023-06-02T00:50:55.630Z,1015.88
2023-06-02T00:53:07.687Z,1015.89
2023-06-02T00:55:19.817Z,1015.95
2023-06-02T00:57:32.862Z,1015.94
2023-06-02T00:59:44.934Z,1015.98
2023-06-02T01:01:58.012Z,1016.01
2023-06-02T01:04:10.101Z,1015.99
2023-06-02T01:06:22.215Z,1015.93
2023-06-02T01:08:34.279Z,1015.98
2023-06-02T01:10:46.344Z,1016.05
2023-06-02T01:12:58.419Z,1016.02
2023-06-02T01:15:10.486Z,1016.05
2023-06-02T01:17:22.593Z,1016.07
2023-06-02T01:19:34.687Z,1016.07
2023-06-02T01:21:46.794Z,1016.09
2023-06-02T01:23:58.845Z,1016.07
2023-06-02T01:26:11.277Z,1016.09
2023-06-02T01:28:23.042Z,1016.16
2023-06-02T01:30:35.081Z,1016.20
2023-06-02T01:32:47.204Z,1016.14
2023-06-02T01:34:59.244Z,1016.16
2023-06-02T01:37:11.326Z,1016.12
2023-06-02T01:39:23.433Z,1016.14
2023-06-02T01:41:36.508Z,1016.12
2023-06-02T01:43:48.573Z,1016.25
2023-06-02T01:46:00.669Z,1016.21
2023-06-02T01:48:12.718Z,1016.26
2023-06-02T01:50:24.837Z,1016.28
2023-06-02T01:52:36.878Z,1016.23
2023-06-02T01:54:48.976Z,1016.21
2023-06-02T01:57:01.039Z,1016.25
2023-06-02T01:59:13.118Z,1016.20
2023-06-02T02:01:25.292Z,1016.19
2023-06-02T02:03:37.321Z,1016.27
2023-06-02T02:05:49.416Z,1016.30
2023-06-02T02:08:02.476Z,1016.30
2023-06-02T02:10:14.599Z,1016.28
2023-06-02T02:12:26.697Z,1016.24
2023-06-02T02:14:38.743Z,1016.25
2023-06-02T02:16:51.919Z,1016.23
2023-06-02T02:19:03.955Z,1016.24
2023-06-02T02:21:16.013Z,1016.21
2023-06-02T02:23:28.139Z,1016.28
2023-06-02T02:25:40.166Z,1016.33
2023-06-02T02:27:52.266Z,1016.36
2023-06-02T02:30:04.355Z,1016.36
2023-06-02T02:32:16.427Z,1016.39
2023-06-02T02:34:29.556Z,1016.38
2023-06-02T02:36:41.573Z,1016.39
2023-06-02T02:38:53.660Z,1016.43
2023-06-02T02:41:06.094Z,1016.49
2023-06-02T02:43:18.157Z,1016.50
2023-06-02T02:45:30.268Z,1016.48
2023-06-02T02:47:42.378Z,1016.47
2023-06-02T02:49:54.391Z,1016.47
2023-06-02T02:52:06.457Z,1016.46
2023-06-02T02:54:18.568Z,1016.53
2023-06-02T02:56:30.676Z,1016.56
2023-06-02T02:58:42.712Z,1016.53
2023-06-02T03:00:55.819Z,1016.56
2023-06-02T03:03:07.967Z,1016.59
2023-06-02T03:05:19.928Z,1016.57
2023-06-02T03:07:32.034Z,1016.59
2023-06-02T03:09:44.100Z,1016.60
2023-06-02T03:11:56.181Z,1016.59
2023-06-02T03:14:08.260Z,1016.58
2023-06-02T03:16:20.326Z,1016.65
2023-06-02T03:18:32.474Z,1016.67
2023-06-02T03:20:44.509Z,1016.64
2023-06-02T03:22:57.588Z,1016.61
2023-06-02T03:25:09.647Z,1016.60
2023-06-02T03:27:22.024Z,1016.63
2023-06-02T03:29:34.175Z,1016.62
2023-06-02T03:31:46.243Z,1016.63
2023-06-02T03:33:58.259Z,1016.65
2023-06-02T03:36:10.351Z,1016.69
2023-06-02T03:38:22.434Z,1016.64
2023-06-02T03:40:34.537Z,1016.68
2023-06-02T03:42:46.603Z,1016.69
2023-06-02T03:44:58.693Z,1016.77
2023-06-02T03:47:10.743Z,1016.77
2023-06-02T03:49:22.876Z,1016.81
2023-06-02T03:51:34.993Z,1016.82
2023-06-02T03:53:47.054Z,1016.81
2023-06-02T03:55:59.137Z,1016.82
2023-06-02T03:58:11.204Z,1016.86
2023-06-02T04:00:23.289Z,1016.86
2023-06-02T04:02:35.424Z,1016.90
2023-06-02T04:04:47.466Z,1016.91
2023-06-02T04:06:59.530Z,1016.88
2023-06-02T04:09:11.627Z,1016.91
2023-06-02T04:11:23.698Z,1016.92
2023-06-02T04:13:35.823Z,1016.96
2023-06-02T04:15:47.899Z,1017.03
2023-06-02T04:18:00.018Z,1017.06
2023-06-02T04:20:12.060Z,1017.09
2023-06-02T04:22:24.137Z,1017.07
2023-06-02T04:24:36.246Z,1017.08
2023-06-02T04:26:48.310Z,1017.04
2023-06-02T04:29:00.377Z,1017.08
2023-06-02T04:31:12.766Z,1017.09
2023-06-02T04:33:24.849Z,1017.15
2023-06-02T04:35:36.974Z,1017.16
2023-06-02T04:37:48.988Z,1017.19
2023-06-02T04:40:01.073Z,1017.14
2023-06-02T04:42:13.186Z,1017.19
2023-06-02T04:44:25.256Z,1017.21
2023-06-02T04:46:37.413Z,1017.23
2023-06-02T04:48:49.424Z,1017.23
2023-06-02T04:51:01.508Z,1017.24
2023-06-02T04:53:13.578Z,1017.29
2023-06-02T04:55:25.698Z,1017.29
2023-06-02T04:57:38.058Z,1017.36
2023-06-02T04:59:50.123Z,1017.36
2023-06-02T05:02:03.828Z,1017.38
2023-06-02T05:04:20.220Z,1017.40
2023-06-02T05:06:27.885Z,1017.38
2023-06-02T05:08:39.972Z,1017.40
2023-06-02T05:10:52.035Z,1017.36
2023-06-02T05:13:04.083Z,1017.34
2023-06-02T05:15:16.182Z,1017.33
2023-06-02T05:17:28.299Z,1017.31
2023-06-02T05:19:40.377Z,1017.29
2023-06-02T05:21:52.501Z,1017.35
2023-06-02T05:24:04.517Z,1017.32
2023-06-02T05:26:16.598Z,1017.31
2023-06-02T05:28:28.685Z,1017.31
2023-06-02T05:30:40.768Z,1017.33
2023-06-02T05:32:52.909Z,1017.36
2023-06-02T05:35:05.914Z,1017.37
2023-06-02T05:37:18.003Z,1017.37
2023-06-02T05:39:30.080Z,1017.43
2023-06-02T05:41:42.180Z,1017.48
2023-06-02T05:43:54.233Z,1017.47
2023-06-02T05:46:06.590Z,1017.48
2023-06-02T05:48:18.506Z,1017.53
2023-06-02T05:50:30.550Z,1017.55
2023-06-02T05:52:43.686Z,1017.57
2023-06-02T05:54:55.799Z,1017.60
2023-06-02T05:57:08.884Z,1017.62
2023-06-02T05:59:21.931Z,1017.64
2023-06-02T06:01:34.028Z,1017.66
2023-06-02T06:03:46.185Z,1017.68
2023-06-02T06:05:58.179Z,1017.69
2023-06-02T06:08:11.249Z,1017.75
2023-06-02T06:10:23.342Z,1017.71
2023-06-02T06:12:35.424Z,1017.78
2023-06-02T06:14:47.545Z,1017.77
2023-06-02T06:16:59.568Z,1017.76
2023-06-02T06:19:11.652Z,1017.73
2023-06-02T06:21:23.825Z,1017.76
2023-06-02T06:23:35.820Z,1017.75
2023-06-02T06:25:47.972Z,1017.79
2023-06-02T06:27:59.983Z,1017.75
2023-06-02T06:30:12.055Z,1017.72
2023-06-02T06:32:24.232Z,1017.79
2023-06-02T06:34:36.266Z,1017.73
2023-06-02T06:36:48.392Z,1017.72
2023-06-02T06:39:00.422Z,1017.78
2023-06-02T06:41:12.520Z,1017.76
2023-06-02T06:43:25.019Z,1017.79
2023-06-02T06:45:36.696Z,1017.76
2023-06-02T06:47:48.917Z,1017.81
2023-06-02T06:50:00.848Z,1017.82
2023-06-02T06:52:12.936Z,1017.80
2023-06-02T06:54:24.996Z,1017.81
2023-06-02T06:56:37.086Z,1017.89
2023-06-02T06:58:49.218Z,1017.89
2023-06-02T07:01:01.301Z,1017.93
2023-06-02T07:03:13.440Z,1017.96
2023-06-02T07:05:25.450Z,1017.92
2023-06-02T07:07:37.521Z,1017.98
2023-06-02T07:09:49.607Z,1017.99
2023-06-02T07:12:01.669Z,1018.01
2023-06-02T07:14:16.216Z,1017.96
2023-06-02T07:16:25.858Z,1017.90
2023-06-02T07:18:37.915Z,1017.91
2023-06-02T07:20:50.032Z,1018.00
2023-06-02T07:23:02.101Z,1017.96
2023-06-02T07:25:14.201Z,1017.99
2023-06-02T07:27:26.275Z,1018.03
2023-06-02T07:29:39.414Z,1018.12
2023-06-02T07:31:51.507Z,1018.14
2023-06-02T07:34:03.519Z,1018.12
2023-06-02T07:36:16.588Z,1018.12
2023-06-02T07:38:28.685Z,1018.11
2023-06-02T07:40:40.758Z,1018.13
2023-06-02T07:42:52.873Z,1018.11
2023-06-02T07:45:04.925Z,1018.13
2023-06-02T07:47:17.029Z,1018.15
2023-06-02T07:49:29.095Z,1018.15
2023-06-02T07:51:41.165Z,1018.18
2023-06-02T07:53:54.243Z,1018.21
2023-06-02T07:56:06.677Z,1018.23
2023-06-02T07:58:19.373Z,1018.22
2023-06-02T08:00:31.430Z,1018.18
2023-06-02T08:01:31.422Z,1018.23
2023-06-02T08:03:43.578Z,1018.17
2023-06-02T08:05:55.591Z,1018.20
2023-06-02T08:08:07.912Z,1018.19
2023-06-02T08:10:19.847Z,1018.21
2023-06-02T08:12:31.834Z,1018.17
2023-06-02T08:14:44.265Z,1018.18
2023-06-02T08:16:58.399Z,1018.18
2023-06-02T08:19:08.084Z,1018.18
2023-06-02T08:21:20.275Z,1018.14
2023-06-02T08:23:32.225Z,1018.18
2023-06-02T08:25:44.288Z,1018.20
2023-06-02T08:27:56.374Z,1018.18
2023-06-02T08:30:08.469Z,1018.14
2023-06-02T08:32:20.544Z,1018.16
2023-06-02T08:34:32.674Z,1018.15
2023-06-02T08:36:44.822Z,1018.16
2023-06-02T08:38:57.856Z,1018.23
2023-06-02T08:41:09.936Z,1018.20
2023-06-02T08:43:22.052Z,1018.24
2023-06-02T08:45:34.151Z,1018.22
2023-06-02T08:47:46.275Z,1018.30
2023-06-02T08:49:58.322Z,1018.34
2023-06-02T08:52:10.386Z,1018.41
2023-06-02T08:54:22.518Z,1018.39
2023-06-02T08:56:34.586Z,1018.44
2023-06-02T08:58:46.638Z,1018.40
2023-06-02T09:00:58.698Z,1018.43
2023-06-02T09:03:13.068Z,1018.44
2023-06-02T09:05:22.911Z,1018.45
2023-06-02T09:07:34.976Z,1018.49
2023-06-02T09:09:47.073Z,1018.56
2023-06-02T09:11:59.174Z,1018.47
2023-06-02T09:14:11.217Z,1018.58
2023-06-02T09:16:23.476Z,1018.56
2023-06-02T09:18:35.398Z,1018.54
2023-06-02T09:20:47.473Z,1018.55
2023-06-02T09:22:59.562Z,1018.55
2023-06-02T09:25:11.632Z,1018.51
2023-06-02T09:27:23.726Z,1018.63
2023-06-02T09:29:36.779Z,1018.69
2023-06-02T09:31:48.922Z,1018.68
2023-06-02T09:34:00.924Z,1018.76
2023-06-02T09:36:13.045Z,1018.77
2023-06-02T09:38:25.372Z,1018.75
2023-06-02T09:40:37.229Z,1018.78
2023-06-02T09:42:49.296Z,1018.75
2023-06-02T09:45:01.391Z,1018.77
2023-06-02T09:47:13.572Z,1018.73
2023-06-02T09:49:25.566Z,1018.77
2023-06-02T09:51:37.614Z,1018.77
2023-06-02T09:53:49.705Z,1018.80
2023-06-02T09:56:01.799Z,1018.81
2023-06-02T09:58:14.841Z,1018.82
2023-06-02T10:00:26.970Z,1018.80
2023-06-02T10:02:40.071Z,1018.82
2023-06-02T10:04:52.079Z,1018.78
2023-06-02T10:07:04.168Z,1018.79
2023-06-02T10:09:20.802Z,1018.72
2023-06-02T10:11:35.409Z,1018.71
2023-06-02T10:13:48.942Z,1018.66
2023-06-02T10:16:04.582Z,1018.71
2023-06-02T10:18:20.176Z,1018.72
2023-06-02T10:20:33.838Z,1018.75
2023-06-02T10:22:46.825Z,1018.80
2023-06-02T10:25:01.918Z,1018.82
2023-06-02T10:27:13.417Z,1018.68
2023-06-02T10:29:27.054Z,1018.76
2023-06-02T10:31:40.145Z,1018.86
2023-06-02T10:33:52.176Z,1018.88
2023-06-02T10:36:05.191Z,1018.83
2023-06-02T10:38:16.330Z,1018.80
2023-06-02T10:40:28.391Z,1018.76
2023-06-02T10:42:40.475Z,1018.72
2023-06-02T10:44:52.649Z,1018.66
2023-06-02T10:47:04.756Z,1018.68
2023-06-02T10:49:16.721Z,1018.67
2023-06-02T10:51:28.836Z,1018.62
2023-06-02T10:53:40.873Z,1018.60
2023-06-02T10:55:52.971Z,1018.56
2023-06-02T10:58:05.077Z,1018.66
2023-06-02T11:00:17.157Z,1018.76
2023-06-02T11:02:29.282Z,1018.74
2023-06-02T11:04:41.294Z,1018.69
2023-06-02T11:06:53.522Z,1018.71
2023-06-02T11:09:05.460Z,1018.62
2023-06-02T11:11:17.524Z,1018.69
2023-06-02T11:13:29.638Z,1018.68
2023-06-02T11:15:41.682Z,1018.71
2023-06-02T11:17:53.785Z,1018.61
2023-06-02T11:20:05.868Z,1018.65
2023-06-02T11:22:17.986Z,1018.68
2023-06-02T11:24:30.068Z,1018.69
2023-06-02T11:26:42.322Z,1018.71
2023-06-02T11:28:54.207Z,1018.68
2023-06-02T11:31:06.681Z,1018.62
2023-06-02T11:33:18.333Z,1018.69
2023-06-02T11:35:30.395Z,1018.66
2023-06-02T11:37:42.518Z,1018.64
2023-06-02T11:39:54.615Z,1018.71
2023-06-02T11:42:06.640Z,1018.72
2023-06-02T11:44:18.787Z,1018.72
2023-06-02T11:46:30.810Z,1018.72
2023-06-02T11:48:42.902Z,1018.68
2023-06-02T11:50:54.974Z,1018.64
2023-06-02T11:53:07.033Z,1018.73
2023-06-02T11:55:19.168Z,1018.72
2023-06-02T11:57:31.190Z,1018.70
2023-06-02T11:59:43.267Z,1018.70
2023-06-02T12:01:55.388Z,1018.68
2023-06-02T12:04:08.144Z,1018.67
2023-06-02T12:06:19.494Z,1018.71
2023-06-02T12:08:31.575Z,1018.76
2023-06-02T12:10:43.664Z,1018.72
2023-06-02T12:12:55.765Z,1018.65
2023-06-02T12:15:07.829Z,1018.58
2023-06-02T12:17:19.937Z,1018.67
2023-06-02T12:19:33.007Z,1018.71
2023-06-02T12:21:45.107Z,1018.72
2023-06-02T12:23:57.195Z,1018.65
2023-06-02T12:26:09.262Z,1018.59
2023-06-02T12:28:21.439Z,1018.72
2023-06-02T12:30:33.410Z,1018.71
2023-06-02T12:32:46.530Z,1018.64
2023-06-02T12:34:58.589Z,1018.57
2023-06-02T12:37:10.646Z,1018.70
2023-06-02T12:39:22.788Z,1018.76
2023-06-02T12:41:34.785Z,1018.63
2023-06-02T12:43:46.875Z,1018.71
2023-06-02T12:45:58.954Z,1018.76
2023-06-02T12:48:11.060Z,1018.69
2023-06-02T12:50:23.099Z,1018.71
2023-06-02T12:52:36.237Z,1018.87
2023-06-02T12:54:48.300Z,1018.78
2023-06-02T12:57:01.471Z,1018.73
2023-06-02T12:59:13.923Z,1018.79
2023-06-02T13:01:26.596Z,1018.78
2023-06-02T13:03:43.536Z,1018.77
2023-06-02T13:05:51.155Z,1018.80
2023-06-02T13:08:03.282Z,1018.86
2023-06-02T13:10:15.315Z,1018.88
2023-06-02T13:12:27.409Z,1018.89
2023-06-02T13:14:40.457Z,1018.82
2023-06-02T13:16:52.647Z,1018.90
2023-06-02T13:19:05.703Z,1018.88
2023-06-02T13:21:17.759Z,1018.89
2023-06-02T13:23:29.831Z,1018.94
2023-06-02T13:25:42.005Z,1019.03
2023-06-02T13:27:54.017Z,1019.02
2023-06-02T13:30:06.109Z,1018.99
2023-06-02T13:32:18.247Z,1018.99
2023-06-02T13:34:30.264Z,1019.02
2023-06-02T13:36:42.375Z,1019.10
2023-06-02T13:38:55.467Z,1019.02
2023-06-02T13:41:07.644Z,1018.99
2023-06-02T13:43:19.700Z,1019.03
2023-06-02T13:45:31.771Z,1019.03
2023-06-02T13:47:44.862Z,1019.10
2023-06-02T13:49:56.929Z,1019.04
2023-06-02T13:52:08.044Z,1019.10
2023-06-02T13:54:20.082Z,1019.12
2023-06-02T13:56:33.220Z,1019.17
2023-06-02T13:58:53.879Z,1019.12
2023-06-02T14:01:01.894Z,1019.24
2023-06-02T14:03:14.090Z,1019.17
2023-06-02T14:05:26.031Z,1019.29
2023-06-02T14:07:38.072Z,1019.25
2023-06-02T14:09:51.151Z,1019.21
2023-06-02T14:12:03.242Z,1019.29
2023-06-02T14:14:15.352Z,1019.35
2023-06-02T14:16:27.472Z,1019.30
2023-06-02T14:18:39.467Z,1019.30
2023-06-02T14:20:51.569Z,1019.31
2023-06-02T14:23:03.641Z,1019.30
2023-06-02T14:25:15.749Z,1019.22
2023-06-02T14:27:27.792Z,1019.31
2023-06-02T14:29:40.924Z,1019.21
2023-06-02T14:31:53.994Z,1019.30
2023-06-02T14:34:06.033Z,1019.27
2023-06-02T14:36:18.145Z,1019.41
2023-06-02T14:38:31.219Z,1019.36
2023-06-02T14:40:43.313Z,1019.29
2023-06-02T14:42:55.372Z,1019.31
2023-06-02T14:45:07.450Z,1019.25
2023-06-02T14:47:19.720Z,1019.31
2023-06-02T14:49:31.706Z,1019.40
2023-06-02T14:51:43.724Z,1019.38
2023-06-02T14:53:56.098Z,1019.47
2023-06-02T14:56:09.451Z,1019.40
2023-06-02T14:58:22.016Z,1019.38
2023-06-02T15:00:34.122Z,1019.51
2023-06-02T15:02:47.227Z,1019.48
2023-06-02T15:04:59.233Z,1019.56
2023-06-02T15:07:11.752Z,1019.47
2023-06-02T15:09:23.424Z,1019.46
2023-06-02T15:11:36.490Z,1019.53
2023-06-02T15:13:48.611Z,1019.51
2023-06-02T15:16:00.651Z,1019.43
2023-06-02T15:18:12.736Z,1019.42
2023-06-02T15:20:24.863Z,1019.37
2023-06-02T15:22:36.888Z,1019.48
2023-06-02T15:24:48.980Z,1019.47
2023-06-02T15:27:01.083Z,1019.45
2023-06-02T15:29:14.127Z,1019.43
2023-06-02T15:31:26.284Z,1019.50
2023-06-02T15:33:38.278Z,1019.54
2023-06-02T15:35:50.424Z,1019.47
2023-06-02T15:38:03.512Z,1019.49
2023-06-02T15:40:16.567Z,1019.48
2023-06-02T15:42:28.697Z,1019.44
2023-06-02T15:44:40.786Z,1019.44
2023-06-02T15:46:52.891Z,1019.43
2023-06-02T15:49:05.883Z,1019.48
2023-06-02T15:51:19.280Z,1019.50
2023-06-02T15:53:31.382Z,1019.46
2023-06-02T15:55:44.430Z,1019.46
2023-06-02T15:57:56.515Z,1019.41
2023-06-02T16:00:08.580Z,1019.49
2023-06-02T16:02:21.791Z,1019.47
2023-06-02T16:04:33.761Z,1019.47
2023-06-02T16:06:45.793Z,1019.45
2023-06-02T16:08:57.913Z,1019.50
2023-06-02T16:11:10.007Z,1019.52
2023-06-02T16:13:24.274Z,1019.52
2023-06-02T16:15:34.186Z,1019.48
2023-06-02T16:17:47.242Z,1019.53
2023-06-02T16:19:59.320Z,1019.57
2023-06-02T16:22:11.489Z,1019.53
2023-06-02T16:24:23.483Z,1019.58
2023-06-02T16:26:35.646Z,1019.57
2023-06-02T16:28:47.658Z,1019.63
2023-06-02T16:30:59.715Z,1019.56
2023-06-02T16:33:11.806Z,1019.62
2023-06-02T16:35:23.860Z,1019.61
2023-06-02T16:37:35.970Z,1019.61
2023-06-02T16:39:48.024Z,1019.69
2023-06-02T16:42:00.132Z,1019.66
2023-06-02T16:44:12.244Z,1019.68
2023-06-02T16:46:24.376Z,1019.67
2023-06-02T16:48:36.440Z,1019.74
2023-06-02T16:50:48.469Z,1019.74
2023-06-02T16:53:00.857Z,1019.76
2023-06-02T16:55:12.941Z,1019.86
2023-06-02T16:57:25.014Z,1019.84
2023-06-02T16:59:37.117Z,1019.85
2023-06-02T17:01:50.299Z,1019.93
2023-06-02T17:04:02.291Z,1019.87
2023-06-02T17:06:14.345Z,1019.87
2023-06-02T17:08:26.423Z,1019.98
2023-06-02T17:10:38.527Z,1019.92
2023-06-02T17:12:50.583Z,1020.01
2023-06-02T17:15:02.686Z,1020.01
2023-06-02T17:17:14.732Z,1020.05
2023-06-02T17:19:26.846Z,1020.11
2023-06-02T17:21:39.952Z,1020.07
2023-06-02T17:23:52.016Z,1020.05
2023-06-02T17:26:04.087Z,1020.05
2023-06-02T17:28:17.173Z,1020.09
2023-06-02T17:30:29.289Z,1020.11
2023-06-02T17:32:41.444Z,1020.15
2023-06-02T17:34:53.452Z,1020.10
2023-06-02T17:37:05.540Z,1020.14
2023-06-02T17:39:17.622Z,1020.22
2023-06-02T17:41:29.689Z,1020.22
2023-06-02T17:43:41.785Z,1020.25
2023-06-02T17:45:53.881Z,1020.19
2023-06-02T17:48:06.010Z,1020.25
2023-06-02T17:50:18.036Z,1020.26
2023-06-02T17:52:31.124Z,1020.29
2023-06-02T17:54:43.371Z,1020.24
2023-06-02T17:56:55.291Z,1020.29
2023-06-02T17:59:08.960Z,1020.34
2023-06-02T18:01:19.478Z,1020.33
2023-06-02T18:03:31.651Z,1020.34
2023-06-02T18:05:43.640Z,1020.33
2023-06-02T18:07:55.676Z,1020.36
2023-06-02T18:10:07.786Z,1020.37
2023-06-02T18:12:19.829Z,1020.45
2023-06-02T18:14:31.911Z,1020.46
2023-06-02T18:16:44.036Z,1020.51
2023-06-02T18:18:57.110Z,1020.57
2023-06-02T18:21:09.160Z,1020.52
2023-06-02T18:23:21.251Z,1020.57
2023-06-02T18:25:33.316Z,1020.56
2023-06-02T18:27:45.434Z,1020.64
2023-06-02T18:29:58.456Z,1020.69
2023-06-02T18:32:10.648Z,1020.69
2023-06-02T18:34:22.595Z,1020.68
2023-06-02T18:36:34.678Z,1020.68
2023-06-02T18:38:47.180Z,1020.74
2023-06-02T18:40:58.859Z,1020.82
2023-06-02T18:43:10.915Z,1020.79
2023-06-02T18:45:23.035Z,1020.86
2023-06-02T18:47:35.154Z,1020.81
2023-06-02T18:49:47.182Z,1020.87
2023-06-02T18:51:59.253Z,1020.89
2023-06-02T18:54:11.339Z,1020.91
2023-06-02T18:56:23.452Z,1020.92
2023-06-02T18:58:35.487Z,1020.96
2023-06-02T19:00:48.569Z,1021.01
2023-06-02T19:03:00.841Z,1021.00
2023-06-02T19:05:12.712Z,1021.09
2023-06-02T19:07:24.801Z,1021.10
2023-06-02T19:09:36.887Z,1021.13
2023-06-02T19:11:48.975Z,1021.13
2023-06-02T19:14:01.095Z,1021.13
2023-06-02T19:16:13.236Z,1021.18
2023-06-02T19:18:25.270Z,1021.20
2023-06-02T19:20:37.342Z,1021.19
2023-06-02T19:22:49.448Z,1021.21
2023-06-02T19:25:02.525Z,1021.22
2023-06-02T19:27:14.567Z,1021.33
2023-06-02T19:29:26.654Z,1021.32
2023-06-02T19:31:38.821Z,1021.35
2023-06-02T19:33:51.137Z,1021.39
2023-06-02T19:36:03.579Z,1021.41
2023-06-02T19:38:15.317Z,1021.43
2023-06-02T19:40:27.393Z,1021.50
2023-06-02T19:42:39.443Z,1021.48
2023-06-02T19:44:51.539Z,1021.52
2023-06-02T19:47:03.895Z,1021.50
2023-06-02T19:49:15.973Z,1021.52
2023-06-02T19:51:28.088Z,1021.51
2023-06-02T19:53:40.203Z,1021.58
2023-06-02T19:55:52.278Z,1021.58
2023-06-02T19:58:04.326Z,1021.55
2023-06-02T20:00:16.431Z,1021.57
2023-06-02T20:02:28.517Z,1021.61
2023-06-02T20:04:40.583Z,1021.60
2023-06-02T20:06:52.691Z,1021.66
2023-06-02T20:09:04.780Z,1021.66
2023-06-02T20:11:16.862Z,1021.63
2023-06-02T20:13:28.962Z,1021.64
2023-06-02T20:15:41.021Z,1021.67
2023-06-02T20:17:53.346Z,1021.67
2023-06-02T20:20:05.278Z,1021.63
2023-06-02T20:22:17.297Z,1021.69
2023-06-02T20:24:29.359Z,1021.70
2023-06-02T20:26:42.433Z,1021.75
2023-06-02T20:28:54.525Z,1021.75
2023-06-02T20:31:06.604Z,1021.83
2023-06-02T20:33:18.691Z,1021.79
2023-06-02T20:35:30.746Z,1021.82
2023-06-02T20:37:42.808Z,1021.83
2023-06-02T20:39:54.933Z,1021.83
2023-06-02T20:42:07.188Z,1021.84
2023-06-02T20:44:19.140Z,1021.87
2023-06-02T20:46:31.285Z,1021.94
2023-06-02T20:48:43.346Z,1021.94
2023-06-02T20:50:56.396Z,1021.93
2023-06-02T20:53:09.444Z,1021.97
2023-06-02T20:55:21.523Z,1022.01
2023-06-02T20:57:33.633Z,1022.05
2023-06-02T20:59:45.682Z,1022.04
2023-06-02T21:01:58.811Z,1022.04
2023-06-02T21:04:10.860Z,1022.07
2023-06-02T21:06:22.917Z,1022.05
2023-06-02T21:08:34.983Z,1022.06
2023-06-02T21:10:47.063Z,1022.04
2023-06-02T21:12:59.188Z,1022.01
2023-06-02T21:15:11.302Z,1022.02
2023-06-02T21:17:23.358Z,1022.09
2023-06-02T21:19:35.413Z,1022.08
2023-06-02T21:21:48.473Z,1022.07
2023-06-02T21:24:01.731Z,1022.14
2023-06-02T21:26:13.659Z,1022.13
2023-06-02T21:28:25.716Z,1022.15
2023-06-02T21:30:37.797Z,1022.20
2023-06-02T21:32:49.981Z,1022.20
2023-06-02T21:35:01.978Z,1022.20
2023-06-02T21:37:14.039Z,1022.24
2023-06-02T21:39:26.114Z,1022.20
2023-06-02T21:41:38.188Z,1022.21
2023-06-02T21:43:50.297Z,1022.24
2023-06-02T21:46:02.410Z,1022.19
2023-06-02T21:48:14.586Z,1022.20
2023-06-02T21:50:26.526Z,1022.18
2023-06-02T21:52:38.605Z,1022.18
2023-06-02T21:54:51.722Z,1022.18
2023-06-02T21:57:03.817Z,1022.19
2023-06-02T21:59:14.873Z,1022.20
2023-06-02T22:01:26.984Z,1022.16
2023-06-02T22:03:39.142Z,1022.18
2023-06-02T22:05:51.189Z,1022.15
2023-06-02T22:08:03.244Z,1022.15
2023-06-02T22:10:15.279Z,1022.16
2023-06-02T22:12:27.369Z,1022.16
2023-06-02T22:14:39.740Z,1022.13
2023-06-02T22:16:51.828Z,1022.10
2023-06-02T22:19:03.935Z,1022.13
2023-06-02T22:21:18.163Z,1022.13
2023-06-02T22:23:28.089Z,1022.10
2023-06-02T22:25:41.146Z,1022.10
2023-06-02T22:27:53.245Z,1022.07
2023-06-02T22:30:05.336Z,1022.04
2023-06-02T22:32:17.386Z,1022.10
2023-06-02T22:34:29.473Z,1022.10
2023-06-02T22:36:41.561Z,1022.15
2023-06-02T22:38:53.677Z,1022.07
2023-06-02T22:41:05.850Z,1022.11
2023-06-02T22:43:17.804Z,1022.11
2023-06-02T22:45:29.888Z,1022.20
2023-06-02T22:47:41.990Z,1022.20
2023-06-02T22:49:54.043Z,1022.22
2023-06-02T22:52:06.193Z,1022.20
2023-06-02T22:54:19.202Z,1022.25
2023-06-02T22:56:31.262Z,1022.27
2023-06-02T22:58:43.333Z,1022.25
2023-06-02T23:00:55.445Z,1022.30
2023-06-02T23:03:07.558Z,1022.30
2023-06-02T23:05:19.566Z,1022.34
2023-06-02T23:07:31.686Z,1022.37
2023-06-02T23:09:43.746Z,1022.37
2023-06-02T23:10:43.740Z,1022.35
2023-06-02T23:12:56.839Z,1022.40
2023-06-02T23:15:08.930Z,1022.42
2023-06-02T23:17:21.008Z,1022.43
2023-06-02T23:19:35.124Z,1022.47
2023-06-02T23:21:47.153Z,1022.51
2023-06-02T23:23:59.329Z,1022.60
2023-06-02T23:26:11.327Z,1022.59
2023-06-02T23:28:23.398Z,1022.60
2023-06-02T23:30:35.543Z,1022.58
2023-06-02T23:32:47.677Z,1022.57
2023-06-02T23:34:59.656Z,1022.57
2023-06-02T23:37:11.715Z,1022.55
2023-06-02T23:39:23.816Z,1022.55
2023-06-02T23:41:36.890Z,1022.55
2023-06-02T23:43:48.942Z,1022.60
2023-06-02T23:46:01.032Z,1022.60
2023-06-02T23:48:13.126Z,1022.54
2023-06-02T23:50:25.190Z,1022.59
2023-06-02T23:52:37.291Z,1022.57
2023-06-02T23:54:49.362Z,1022.60
2023-06-02T23:57:01.469Z,1022.58
2023-06-02T23:59:13.565Z,1022.56
